createdAt,value
2018-03-06T00:00:12.422Z,31.00
2018-03-06T00:02:39.874Z,36.30
2018-03-06T00:05:07.329Z,35.90
2018-03-06T00:07:34.781Z,33.57
2018-03-06T00:10:02.238Z,34.50
2018-03-06T00:12:29.697Z,38.93
2018-03-06T00:14:57.150Z,35.20
2018-03-06T00:17:24.616Z,37.60
2018-03-06T00:19:52.069Z,39.07
2018-03-06T00:22:20.288Z,40.13
2018-03-06T00:24:48.508Z,39.20
2018-03-06T00:27:15.966Z,38.10
2018-03-06T00:29:43.413Z,37.03
2018-03-06T00:32:10.883Z,38.87
2018-03-06T00:34:38.346Z,38.10
2018-03-06T00:37:05.806Z,37.37
2018-03-06T00:39:33.252Z,38.17
2018-03-06T00:42:00.710Z,38.17
2018-03-06T00:44:28.208Z,41.80
2018-03-06T00:46:55.633Z,38.77
2018-03-06T00:49:23.085Z,40.50
2018-03-06T00:51:50.546Z,38.47
2018-03-06T00:54:17.994Z,38.97
2018-03-06T00:56:45.453Z,43.83
2018-03-06T00:59:13.669Z,42.63
2018-03-06T01:01:41.902Z,40.50
2018-03-06T01:04:09.360Z,42.37
2018-03-06T01:06:36.804Z,38.27
2018-03-06T01:09:04.266Z,39.17
2018-03-06T01:11:32.485Z,39.30
2018-03-06T01:14:00.713Z,40.00
2018-03-06T01:16:28.167Z,41.33
2018-03-06T01:18:55.625Z,44.70
2018-03-06T01:21:23.078Z,40.80
2018-03-06T01:23:50.534Z,42.57
2018-03-06T01:26:17.990Z,36.90
2018-03-06T01:28:45.452Z,42.00
2018-03-06T01:31:12.900Z,39.93
2018-03-06T01:33:40.361Z,40.87
2018-03-06T01:36:07.813Z,38.00
2018-03-06T01:38:35.276Z,39.67
2018-03-06T01:41:02.725Z,38.53
2018-03-06T01:43:30.177Z,38.37
2018-03-06T01:45:57.633Z,39.77
2018-03-06T01:48:25.091Z,45.80
2018-03-06T01:50:52.536Z,41.73
2018-03-06T01:53:20.001Z,40.80
2018-03-06T01:55:47.447Z,42.77
2018-03-06T01:58:14.897Z,42.80
2018-03-06T02:00:42.353Z,41.70
2018-03-06T02:03:09.812Z,40.13
2018-03-06T02:05:37.265Z,42.97
2018-03-06T02:08:04.730Z,40.33
2018-03-06T02:10:32.177Z,40.97
2018-03-06T02:12:59.633Z,39.83
2018-03-06T02:15:27.089Z,40.83
2018-03-06T02:17:54.541Z,41.47
2018-03-06T02:20:22.003Z,41.30
2018-03-06T02:22:49.457Z,42.00
2018-03-06T02:25:16.910Z,44.93
2018-03-06T02:27:44.362Z,42.50
2018-03-06T02:30:11.817Z,43.63
2018-03-06T02:32:39.272Z,42.27
2018-03-06T02:35:06.737Z,41.30
2018-03-06T02:37:34.184Z,42.80
2018-03-06T02:40:01.651Z,43.30
2018-03-06T02:42:29.106Z,41.63
2018-03-06T02:44:56.561Z,42.47
2018-03-06T02:47:24.009Z,44.77
2018-03-06T02:49:51.477Z,43.57
2018-03-06T02:52:18.925Z,46.33
2018-03-06T02:54:46.386Z,46.53
2018-03-06T02:57:13.838Z,47.97
2018-03-06T02:59:41.297Z,43.93
2018-03-06T03:02:08.749Z,46.03
2018-03-06T03:04:36.977Z,42.17
2018-03-06T03:07:04.421Z,41.97
2018-03-06T03:09:31.878Z,49.23
2018-03-06T03:11:59.342Z,46.40
2018-03-06T03:14:26.798Z,46.13
2018-03-06T03:16:54.261Z,45.13
2018-03-06T03:19:21.709Z,46.73
2018-03-06T03:21:49.165Z,44.43
2018-03-06T03:24:16.624Z,48.80
2018-03-06T03:26:44.081Z,47.60
2018-03-06T03:29:11.538Z,49.20
2018-03-06T03:31:39.000Z,45.67
2018-03-06T03:34:06.445Z,45.43
2018-03-06T03:36:33.905Z,52.47
2018-03-06T03:39:01.356Z,47.70
2018-03-06T03:41:28.818Z,47.80
2018-03-06T03:43:56.269Z,48.30
2018-03-06T03:46:23.729Z,48.53
2018-03-06T03:48:51.179Z,49.00
2018-03-06T03:51:18.636Z,49.20
2018-03-06T03:53:46.085Z,47.63
2018-03-06T03:56:13.554Z,47.70
2018-03-06T03:58:40.998Z,49.77
2018-03-06T04:01:08.470Z,50.37
2018-03-06T04:03:35.917Z,46.47
2018-03-06T04:06:03.386Z,48.80
2018-03-06T04:08:30.836Z,49.00
2018-03-06T04:10:58.301Z,48.83
2018-03-06T04:13:26.522Z,49.30
2018-03-06T04:15:54.008Z,50.83
2018-03-06T04:18:21.462Z,51.43
2018-03-06T04:20:48.921Z,51.17
2018-03-06T04:23:16.385Z,51.70
2018-03-06T04:25:43.838Z,54.77
2018-03-06T04:28:11.299Z,50.27
2018-03-06T04:30:38.757Z,51.70
2018-03-06T04:33:06.217Z,52.93
2018-03-06T04:35:33.669Z,53.67
2018-03-06T04:38:01.125Z,54.47
2018-03-06T04:40:28.587Z,56.00
2018-03-06T04:42:56.049Z,53.17
2018-03-06T04:45:23.508Z,58.13
2018-03-06T04:47:50.977Z,56.77
2018-03-06T04:50:18.435Z,57.47
2018-03-06T04:52:45.903Z,61.07
2018-03-06T04:55:13.354Z,57.53
2018-03-06T04:57:40.814Z,59.57
2018-03-06T05:00:08.273Z,62.83
2018-03-06T05:02:35.741Z,60.10
2018-03-06T05:05:03.961Z,62.53
2018-03-06T05:07:31.417Z,59.50
2018-03-06T05:09:58.869Z,56.77
2018-03-06T05:12:26.325Z,50.90
2018-03-06T05:14:53.773Z,50.80
2018-03-06T05:17:21.233Z,56.33
2018-03-06T05:19:48.685Z,51.53
2018-03-06T05:22:16.145Z,52.37
2018-03-06T05:24:43.603Z,53.50
2018-03-06T05:27:11.057Z,54.03
2018-03-06T05:29:38.501Z,55.70
2018-03-06T05:32:05.966Z,51.77
2018-03-06T05:34:33.414Z,58.43
2018-03-06T05:37:00.871Z,55.30
2018-03-06T05:39:28.330Z,56.20
2018-03-06T05:41:55.776Z,58.43
2018-03-06T05:44:23.241Z,56.20
2018-03-06T05:46:50.693Z,57.43
2018-03-06T05:49:18.150Z,54.37
2018-03-06T05:51:45.593Z,56.97
2018-03-06T05:54:13.818Z,53.90
2018-03-06T05:56:41.266Z,57.87
2018-03-06T05:59:09.489Z,59.20
2018-03-06T06:01:37.704Z,58.40
2018-03-06T06:04:05.162Z,56.80
2018-03-06T06:06:32.605Z,58.47
2018-03-06T06:09:00.069Z,69.23
2018-03-06T06:11:27.522Z,64.77
2018-03-06T06:13:55.801Z,60.90
2018-03-06T06:16:23.253Z,64.47
2018-03-06T06:18:50.709Z,63.00
2018-03-06T06:21:18.186Z,65.30
2018-03-06T06:23:45.623Z,64.43
2018-03-06T06:26:13.083Z,67.97
2018-03-06T06:28:40.542Z,67.03
2018-03-06T06:31:07.994Z,62.87
2018-03-06T06:33:35.454Z,60.50
2018-03-06T06:36:02.905Z,59.90
2018-03-06T06:38:30.365Z,61.37
2018-03-06T06:40:57.817Z,65.87
2018-03-06T06:43:25.280Z,63.67
2018-03-06T06:45:52.733Z,65.93
2018-03-06T06:48:20.182Z,66.03
2018-03-06T06:50:47.632Z,68.70
2018-03-06T06:53:15.085Z,67.93
2018-03-06T06:55:42.547Z,68.23
2018-03-06T06:58:10.007Z,66.90
2018-03-06T07:00:37.461Z,70.37
2018-03-06T07:03:04.914Z,70.50
2018-03-06T07:05:32.374Z,71.70
2018-03-06T07:07:59.828Z,73.50
2018-03-06T07:10:27.337Z,72.40
2018-03-06T07:12:54.745Z,72.50
2018-03-06T07:15:22.208Z,74.20
2018-03-06T07:17:49.657Z,72.90
2018-03-06T07:20:17.117Z,74.93
2018-03-06T07:22:44.566Z,69.60
2018-03-06T07:25:12.034Z,72.00
2018-03-06T07:27:39.490Z,68.10
2018-03-06T07:30:06.954Z,66.87
2018-03-06T07:32:34.404Z,72.03
2018-03-06T07:35:01.872Z,72.07
2018-03-06T07:37:29.321Z,65.43
2018-03-06T07:39:56.785Z,70.23
2018-03-06T07:42:24.238Z,69.23
2018-03-06T07:44:51.692Z,67.93
2018-03-06T07:47:19.145Z,70.13
2018-03-06T07:49:46.609Z,70.70
2018-03-06T07:52:14.058Z,66.73
2018-03-06T07:54:41.521Z,68.93
2018-03-06T07:57:08.974Z,67.07
2018-03-06T07:59:36.425Z,69.23
2018-03-06T08:02:03.891Z,67.97
2018-03-06T08:04:31.365Z,68.80
2018-03-06T08:06:58.825Z,67.20
2018-03-06T08:09:26.281Z,66.33
2018-03-06T08:11:53.741Z,69.03
2018-03-06T08:14:21.195Z,69.17
2018-03-06T08:16:48.653Z,64.17
2018-03-06T08:19:16.110Z,68.33
2018-03-06T08:21:43.561Z,65.60
2018-03-06T08:24:11.018Z,69.20
2018-03-06T08:26:38.476Z,68.07
2018-03-06T08:29:05.925Z,69.23
2018-03-06T08:31:33.387Z,68.00
2018-03-06T08:34:00.837Z,68.60
2018-03-06T08:36:28.288Z,67.80
2018-03-06T08:38:55.735Z,66.20
2018-03-06T08:41:23.191Z,68.40
2018-03-06T08:43:50.649Z,72.17
2018-03-06T08:46:18.109Z,72.53
2018-03-06T08:48:45.559Z,67.47
2018-03-06T08:51:13.021Z,68.03
2018-03-06T08:53:40.477Z,71.87
2018-03-06T08:56:07.937Z,69.13
2018-03-06T08:58:35.389Z,71.47
2018-03-06T09:01:02.845Z,67.53
2018-03-06T09:03:30.319Z,68.07
2018-03-06T09:05:57.769Z,70.70
2018-03-06T09:08:25.233Z,71.13
2018-03-06T09:10:52.685Z,68.30
2018-03-06T09:13:20.141Z,70.63
2018-03-06T09:15:47.598Z,67.17
2018-03-06T09:18:15.050Z,68.07
2018-03-06T09:20:42.501Z,68.60
2018-03-06T09:23:09.961Z,73.00
2018-03-06T09:25:37.414Z,70.27
2018-03-06T09:28:04.881Z,68.27
2018-03-06T09:30:32.341Z,67.37
2018-03-06T09:32:59.788Z,64.70
2018-03-06T09:35:27.241Z,69.00
2018-03-06T09:37:55.462Z,70.23
2018-03-06T09:40:23.681Z,68.40
2018-03-06T09:42:51.137Z,69.93
2018-03-06T09:45:18.578Z,65.83
2018-03-06T09:47:46.045Z,70.97
2018-03-06T09:50:13.496Z,70.60
2018-03-06T09:52:40.957Z,55.53
2018-03-06T09:55:08.409Z,63.47
2018-03-06T09:57:35.927Z,66.20
2018-03-06T10:00:03.329Z,58.57
2018-03-06T10:02:30.794Z,59.13
2018-03-06T10:04:58.245Z,58.10
2018-03-06T10:07:25.701Z,61.07
2018-03-06T10:09:53.169Z,62.57
2018-03-06T10:12:20.621Z,64.07
2018-03-06T10:14:48.082Z,65.40
2018-03-06T10:17:15.529Z,60.73
2018-03-06T10:19:42.993Z,64.50
2018-03-06T10:22:10.445Z,66.30
2018-03-06T10:24:37.901Z,63.97
2018-03-06T10:27:05.353Z,66.30
2018-03-06T10:29:32.813Z,62.57
2018-03-06T10:32:00.265Z,64.47
2018-03-06T10:34:27.729Z,67.40
2018-03-06T10:36:55.181Z,64.40
2018-03-06T10:39:22.643Z,62.67
2018-03-06T10:41:50.093Z,62.97
2018-03-06T10:44:17.549Z,64.40
2018-03-06T10:46:45.008Z,60.53
2018-03-06T10:49:12.474Z,59.87
2018-03-06T10:51:39.926Z,64.07
2018-03-06T10:54:07.389Z,62.20
2018-03-06T10:56:34.837Z,60.20
2018-03-06T10:59:02.302Z,61.43
2018-03-06T11:01:32.721Z,59.03
2018-03-06T11:04:00.181Z,59.07
2018-03-06T11:06:27.637Z,60.20
2018-03-06T11:08:55.117Z,57.43
2018-03-06T11:11:22.587Z,60.03
2018-03-06T11:13:50.018Z,55.80
2018-03-06T11:16:17.476Z,51.93
2018-03-06T11:18:44.929Z,50.07
2018-03-06T11:21:12.381Z,48.13
2018-03-06T11:23:39.829Z,49.37
2018-03-06T11:26:07.291Z,52.47
2018-03-06T11:28:34.740Z,51.77
2018-03-06T11:31:02.201Z,49.93
2018-03-06T11:33:30.418Z,52.00
2018-03-06T11:35:58.650Z,51.17
2018-03-06T11:38:26.101Z,52.40
2018-03-06T11:40:53.558Z,51.70
2018-03-06T11:43:21.006Z,52.13
2018-03-06T11:45:48.465Z,51.77
2018-03-06T11:48:15.921Z,51.60
2018-03-06T11:50:43.382Z,50.00
2018-03-06T11:53:10.833Z,46.60
2018-03-06T11:55:38.293Z,48.40
2018-03-06T11:58:05.741Z,44.80
2018-03-06T12:00:33.196Z,45.80
2018-03-06T12:03:00.646Z,48.37
2018-03-06T12:05:28.104Z,48.30
2018-03-06T12:07:55.551Z,48.80
2018-03-06T12:10:23.007Z,49.93
2018-03-06T12:12:50.469Z,49.17
2018-03-06T12:15:17.937Z,48.67
2018-03-06T12:17:45.389Z,43.17
2018-03-06T12:20:12.854Z,47.17
2018-03-06T12:22:40.308Z,47.03
2018-03-06T12:25:07.757Z,47.27
2018-03-06T12:27:35.209Z,48.67
2018-03-06T12:30:02.685Z,45.00
2018-03-06T12:32:30.125Z,47.03
2018-03-06T12:34:57.583Z,41.47
2018-03-06T12:37:25.045Z,45.07
2018-03-06T12:39:52.488Z,46.43
2018-03-06T12:42:19.951Z,45.73
2018-03-06T12:44:47.398Z,38.60
2018-03-06T12:47:14.852Z,39.27
2018-03-06T12:49:42.298Z,39.23
2018-03-06T12:52:09.753Z,40.33
2018-03-06T12:54:37.209Z,42.40
2018-03-06T12:57:04.666Z,46.30
2018-03-06T12:59:32.123Z,44.03
2018-03-06T13:02:00.341Z,43.63
2018-03-06T13:04:27.793Z,40.23
2018-03-06T13:06:55.256Z,42.70
2018-03-06T13:09:22.714Z,40.53
2018-03-06T13:11:50.169Z,38.40
2018-03-06T13:14:17.620Z,40.87
2018-03-06T13:16:45.081Z,42.90
2018-03-06T13:19:12.545Z,41.73
2018-03-06T13:21:40.001Z,41.10
2018-03-06T13:24:07.461Z,41.73
2018-03-06T13:26:34.925Z,41.77
2018-03-06T13:29:02.405Z,41.10
2018-03-06T13:31:29.857Z,44.40
2018-03-06T13:33:58.091Z,42.50
2018-03-06T13:36:25.553Z,43.10
2018-03-06T13:38:52.994Z,42.50
2018-03-06T13:41:20.468Z,43.20
2018-03-06T13:43:47.922Z,43.07
2018-03-06T13:46:15.374Z,42.20
2018-03-06T13:48:42.833Z,39.40
2018-03-06T13:51:10.286Z,41.60
2018-03-06T13:53:37.750Z,43.40
2018-03-06T13:56:05.205Z,43.67
2018-03-06T13:58:32.669Z,41.00
2018-03-06T14:01:00.121Z,40.80
2018-03-06T14:03:27.581Z,37.83
2018-03-06T14:05:55.048Z,40.67
2018-03-06T14:08:22.512Z,42.83
2018-03-06T14:10:49.963Z,42.67
2018-03-06T14:13:17.421Z,42.37
2018-03-06T14:15:44.877Z,43.00
2018-03-06T14:18:12.338Z,41.33
2018-03-06T14:20:39.789Z,44.47
2018-03-06T14:23:07.290Z,44.17
2018-03-06T14:25:35.481Z,41.57
2018-03-06T14:28:02.950Z,44.10
2018-03-06T14:30:30.401Z,46.93
2018-03-06T14:32:58.641Z,46.10
2018-03-06T14:35:26.110Z,43.33
2018-03-06T14:37:53.564Z,44.00
2018-03-06T14:40:21.018Z,44.80
2018-03-06T14:42:48.489Z,45.97
2018-03-06T14:45:15.941Z,45.93
2018-03-06T14:47:43.406Z,46.17
2018-03-06T14:50:10.857Z,47.00
2018-03-06T14:52:38.321Z,45.50
2018-03-06T14:55:05.773Z,43.33
2018-03-06T14:57:33.232Z,45.30
2018-03-06T15:00:00.692Z,45.13
2018-03-06T15:02:28.157Z,44.23
2018-03-06T15:04:55.614Z,40.23
2018-03-06T15:07:23.061Z,39.20
2018-03-06T15:09:50.524Z,40.77
2018-03-06T15:12:17.976Z,39.20
2018-03-06T15:14:45.437Z,40.30
2018-03-06T15:17:12.892Z,42.10
2018-03-06T15:19:40.368Z,40.60
2018-03-06T15:22:07.833Z,37.60
2018-03-06T15:24:35.313Z,36.80
2018-03-06T15:27:03.533Z,35.80
2018-03-06T15:29:31.002Z,34.07
2018-03-06T15:31:58.462Z,34.73
2018-03-06T15:34:25.921Z,31.93
2018-03-06T15:36:53.422Z,33.40
2018-03-06T15:39:20.842Z,31.43
2018-03-06T15:41:48.302Z,31.53
2018-03-06T15:44:15.767Z,30.50
2018-03-06T15:46:43.221Z,29.90
2018-03-06T15:49:10.697Z,30.47
2018-03-06T15:51:38.912Z,30.80
2018-03-06T15:54:06.376Z,30.30
2018-03-06T15:56:33.825Z,30.50
2018-03-06T15:59:01.297Z,29.20
2018-03-06T16:01:28.765Z,29.83
2018-03-06T16:03:56.221Z,30.30
2018-03-06T16:06:23.680Z,30.10
2018-03-06T16:08:51.144Z,29.83
2018-03-06T16:11:18.601Z,32.33
2018-03-06T16:13:46.060Z,30.60
2018-03-06T16:16:13.521Z,31.97
2018-03-06T16:18:40.996Z,30.30
2018-03-06T16:21:09.218Z,32.07
2018-03-06T16:23:36.674Z,31.57
2018-03-06T16:26:04.145Z,31.43
2018-03-06T16:28:31.610Z,29.50
2018-03-06T16:30:59.072Z,31.00
2018-03-06T16:33:26.529Z,32.83
2018-03-06T16:35:53.992Z,30.80
2018-03-06T16:38:21.440Z,31.60
2018-03-06T16:40:48.893Z,31.80
2018-03-06T16:43:16.345Z,32.83
2018-03-06T16:45:43.801Z,30.47
2018-03-06T16:48:11.272Z,33.23
2018-03-06T16:50:38.721Z,34.83
2018-03-06T16:53:06.184Z,33.00
2018-03-06T16:55:33.638Z,32.90
2018-03-06T16:58:01.094Z,33.67
2018-03-06T17:00:28.549Z,35.17
2018-03-06T17:02:56.011Z,32.70
2018-03-06T17:05:23.474Z,33.27
2018-03-06T17:07:51.702Z,36.50
2018-03-06T17:10:19.159Z,35.77
2018-03-06T17:12:46.614Z,33.57
2018-03-06T17:15:14.080Z,32.53
2018-03-06T17:17:41.531Z,32.87
2018-03-06T17:20:08.989Z,32.83
2018-03-06T17:22:36.458Z,32.83
2018-03-06T17:25:03.896Z,32.17
2018-03-06T17:27:31.341Z,32.87
2018-03-06T17:29:58.814Z,34.13
2018-03-06T17:32:26.270Z,32.20
2018-03-06T17:34:53.732Z,34.00
2018-03-06T17:37:21.254Z,31.20
2018-03-06T17:39:48.670Z,34.73
2018-03-06T17:42:16.134Z,32.97
2018-03-06T17:44:43.590Z,33.33
2018-03-06T17:47:11.050Z,33.83
2018-03-06T17:49:38.502Z,33.30
2018-03-06T17:52:05.965Z,35.20
2018-03-06T17:54:34.189Z,30.87
2018-03-06T17:57:01.650Z,32.80
2018-03-06T17:59:29.103Z,31.83
2018-03-06T18:01:56.565Z,32.07
2018-03-06T18:04:24.050Z,31.83
2018-03-06T18:06:51.505Z,30.93
2018-03-06T18:09:18.957Z,34.60
2018-03-06T18:11:46.421Z,33.10
2018-03-06T18:14:13.913Z,32.80
2018-03-06T18:16:41.376Z,33.43
2018-03-06T18:19:08.847Z,31.83
2018-03-06T18:21:36.305Z,33.57
2018-03-06T18:24:03.761Z,29.50
2018-03-06T18:26:31.221Z,34.07
2018-03-06T18:28:58.677Z,32.33
2018-03-06T18:31:26.138Z,33.67
2018-03-06T18:33:53.598Z,33.47
2018-03-06T18:36:21.060Z,33.67
2018-03-06T18:38:48.518Z,34.20
2018-03-06T18:41:15.982Z,33.20
2018-03-06T18:43:43.456Z,32.30
2018-03-06T18:46:10.916Z,34.57
2018-03-06T18:48:38.369Z,35.90
2018-03-06T18:51:10.717Z,34.43
2018-03-06T18:53:38.178Z,38.33
2018-03-06T18:56:05.633Z,35.73
2018-03-06T18:58:33.100Z,43.03
2018-03-06T19:04:24.981Z,42.70
2018-03-06T19:07:08.078Z,44.90
2018-03-06T19:09:35.603Z,46.23
2018-03-06T19:12:03.114Z,44.60
2018-03-06T19:14:30.601Z,45.10
2018-03-06T19:16:58.061Z,45.13
2018-03-06T19:19:25.523Z,41.47
2018-03-06T19:21:52.978Z,40.20
2018-03-06T19:24:20.526Z,36.17
2018-03-06T19:26:47.981Z,33.97
2018-03-06T19:29:15.555Z,32.17
2018-03-06T19:31:43.034Z,30.37
2018-03-06T19:34:10.505Z,33.17
2018-03-06T19:36:37.971Z,35.03
2018-03-06T19:39:05.430Z,32.90
2018-03-06T19:41:32.881Z,33.70
2018-03-06T19:44:00.342Z,33.60
2018-03-06T19:46:27.795Z,33.37
2018-03-06T19:48:55.313Z,31.40
2018-03-06T19:51:22.784Z,30.47
2018-03-06T19:53:50.260Z,31.40
2018-03-06T19:56:17.706Z,33.53
2018-03-06T19:58:45.197Z,31.27
2018-03-06T20:01:13.418Z,31.60
2018-03-06T20:03:40.874Z,30.93
2018-03-06T20:06:08.329Z,30.20
2018-03-06T20:08:35.798Z,31.23
2018-03-06T20:11:03.253Z,30.13
2018-03-06T20:13:30.713Z,31.57
2018-03-06T20:15:58.933Z,30.63
2018-03-06T20:18:27.158Z,29.50
2018-03-06T20:20:54.615Z,26.33
2018-03-06T20:23:22.839Z,28.70
2018-03-06T20:25:56.750Z,27.37
2018-03-06T20:28:24.982Z,28.27
2018-03-06T20:30:58.033Z,26.00
2018-03-06T20:33:25.496Z,26.67
2018-03-06T20:35:52.946Z,27.13
2018-03-06T20:38:26.146Z,27.17
2018-03-06T20:40:53.607Z,26.23
2018-03-06T20:43:21.054Z,25.33
2018-03-06T20:45:54.272Z,26.90
2018-03-06T20:48:21.724Z,24.53
2018-03-06T20:50:49.966Z,27.23
2018-03-06T20:53:23.173Z,26.60
2018-03-06T20:55:50.629Z,26.30
2018-03-06T20:58:18.085Z,27.83
2018-03-06T21:00:45.546Z,26.87
2018-03-06T21:03:13.009Z,26.40
2018-03-06T21:05:40.473Z,24.77
2018-03-06T21:08:07.938Z,26.80
2018-03-06T21:10:35.401Z,27.23
2018-03-06T21:13:02.855Z,29.60
2018-03-06T21:15:30.317Z,28.37
2018-03-06T21:17:57.770Z,29.80
2018-03-06T21:20:25.252Z,31.00
2018-03-06T21:22:52.685Z,30.20
2018-03-06T21:25:20.145Z,28.83
2018-03-06T21:27:47.596Z,29.70
2018-03-06T21:30:15.055Z,26.53
2018-03-06T21:32:42.508Z,29.03
2018-03-06T21:35:09.966Z,29.17
2018-03-06T21:37:37.417Z,29.73
2018-03-06T21:40:04.882Z,32.37
2018-03-06T21:42:32.333Z,30.80
2018-03-06T21:44:59.793Z,30.37
2018-03-06T21:47:27.240Z,32.17
2018-03-06T21:49:54.701Z,31.73
2018-03-06T21:52:22.154Z,29.80
2018-03-06T21:54:49.622Z,34.77
2018-03-06T21:57:17.089Z,32.67
2018-03-06T21:59:45.357Z,35.70
2018-03-06T22:02:12.814Z,32.37
2018-03-06T22:04:40.269Z,35.40
2018-03-06T22:07:07.721Z,35.00
2018-03-06T22:09:35.206Z,34.17
2018-03-06T22:12:03.426Z,32.07
2018-03-06T22:14:30.897Z,32.97
2018-03-06T22:16:58.358Z,30.33
2018-03-06T22:19:25.805Z,30.63
2018-03-06T22:21:53.264Z,29.13
2018-03-06T22:24:20.717Z,30.10
2018-03-06T22:26:48.188Z,28.87
2018-03-06T22:29:15.682Z,33.50
2018-03-06T22:31:43.901Z,30.67
2018-03-06T22:34:11.358Z,31.60
2018-03-06T22:36:38.842Z,29.07
2018-03-06T22:39:06.293Z,29.93
2018-03-06T22:41:33.782Z,30.20
2018-03-06T22:44:02.020Z,30.10
2018-03-06T22:46:29.502Z,32.50
2018-03-06T22:48:56.953Z,29.80
2018-03-06T22:51:24.417Z,28.40
2018-03-06T22:53:52.640Z,31.13
2018-03-06T22:56:20.093Z,29.57
2018-03-06T22:58:47.569Z,31.93
2018-03-06T23:01:15.047Z,29.13
2018-03-06T23:03:42.499Z,30.27
2018-03-06T23:06:09.973Z,30.13
2018-03-06T23:08:38.202Z,30.80
2018-03-06T23:11:05.694Z,31.00
2018-03-06T23:13:33.162Z,30.73
2018-03-06T23:16:00.607Z,29.10
2018-03-06T23:18:28.074Z,30.70
2018-03-06T23:20:56.299Z,30.03
2018-03-06T23:23:23.753Z,29.40
2018-03-06T23:25:51.219Z,28.77
2018-03-06T23:28:18.682Z,29.53
2018-03-06T23:30:46.143Z,28.53
2018-03-06T23:33:14.832Z,26.23
2018-03-06T23:35:43.233Z,28.20
2018-03-06T23:38:11.525Z,26.93
2018-03-06T23:40:40.094Z,24.30
2018-03-06T23:43:07.549Z,26.57
2018-03-06T23:45:35.026Z,26.47
2018-03-06T23:48:03.245Z,24.43
2018-03-06T23:50:30.729Z,24.73
2018-03-06T23:52:58.182Z,23.83
2018-03-06T23:55:25.631Z,22.97
2018-03-06T23:57:53.085Z,23.33
